createdAt,value
2022-12-18T00:00:53.759Z,83.19
2022-12-18T00:03:21.482Z,80.32
2022-12-18T00:05:49.569Z,81.23
2022-12-18T00:08:17.424Z,83.96
2022-12-18T00:10:45.280Z,82.97
2022-12-18T00:13:13.446Z,85.55
2022-12-18T00:15:41.441Z,86.21
2022-12-18T00:18:11.642Z,84.35
2022-12-18T00:20:41.699Z,81.96
2022-12-18T00:23:09.778Z,86.85
2022-12-18T00:25:38.231Z,86.03
2022-12-18T00:28:06.198Z,82.96
2022-12-18T00:30:33.820Z,83.36
2022-12-18T00:33:01.589Z,82.10
2022-12-18T00:35:30.527Z,81.91
2022-12-18T00:37:58.048Z,81.81
2022-12-18T00:40:25.625Z,79.25
2022-12-18T00:42:58.465Z,82.79
2022-12-18T00:45:27.452Z,82.15
2022-12-18T00:47:55.693Z,82.96
2022-12-18T00:50:24.064Z,82.78
2022-12-18T00:52:53.178Z,82.25
2022-12-18T00:55:21.076Z,78.61
2022-12-18T00:57:48.652Z,82.86
2022-12-18T01:00:17.215Z,79.83
2022-12-18T01:02:44.902Z,81.26
2022-12-18T01:05:13.735Z,84.63
2022-12-18T01:07:41.460Z,81.44
2022-12-18T01:10:13.958Z,83.35
2022-12-18T01:12:41.838Z,84.83
2022-12-18T01:15:11.386Z,84.84
2022-12-18T01:17:39.247Z,84.29
2022-12-18T01:20:07.692Z,83.51
2022-12-18T01:22:35.561Z,78.97
2022-12-18T01:25:03.410Z,83.25
2022-12-18T01:27:35.382Z,82.74
2022-12-18T01:30:02.991Z,85.47
2022-12-18T01:32:31.904Z,83.12
2022-12-18T01:34:59.563Z,83.58
2022-12-18T01:37:27.155Z,83.01
2022-12-18T01:39:55.594Z,82.99
2022-12-18T01:42:23.824Z,83.03
2022-12-18T01:45:08.280Z,86.48
2022-12-18T01:47:38.909Z,86.20
2022-12-18T01:50:10.746Z,85.42
2022-12-18T01:52:38.921Z,83.94
2022-12-18T01:55:08.532Z,83.75
2022-12-18T01:57:36.844Z,79.88
2022-12-18T02:00:13.440Z,82.97
2022-12-18T02:02:41.596Z,81.20
2022-12-18T02:05:10.390Z,83.04
2022-12-18T02:07:45.137Z,82.80
2022-12-18T02:10:18.077Z,82.88
2022-12-18T02:12:51.016Z,81.69
2022-12-18T02:15:25.877Z,79.69
2022-12-18T02:17:57.643Z,82.09
2022-12-18T02:20:30.332Z,81.01
2022-12-18T02:23:06.673Z,82.92
2022-12-18T02:25:58.396Z,82.10
2022-12-18T02:28:28.394Z,80.16
2022-12-18T02:30:58.411Z,81.30
2022-12-18T02:33:28.104Z,82.26
2022-12-18T02:35:56.929Z,82.82
2022-12-18T02:38:25.591Z,85.86
2022-12-18T02:40:53.855Z,83.21
2022-12-18T02:43:22.840Z,83.82
2022-12-18T02:45:53.075Z,82.68
2022-12-18T02:48:22.181Z,80.88
2022-12-18T02:50:56.733Z,83.10
2022-12-18T02:53:28.733Z,79.92
2022-12-18T02:56:08.182Z,82.71
2022-12-18T02:58:43.215Z,83.09
2022-12-18T03:01:14.623Z,79.58
2022-12-18T03:03:44.279Z,82.78
2022-12-18T03:06:16.055Z,83.06
2022-12-18T03:08:45.940Z,82.26
2022-12-18T03:11:16.022Z,79.16
2022-12-18T03:13:47.973Z,78.54
2022-12-18T03:16:21.793Z,80.79
2022-12-18T03:18:52.360Z,84.09
2022-12-18T03:21:23.476Z,81.50
2022-12-18T03:23:52.909Z,83.83
2022-12-18T03:26:23.794Z,81.98
2022-12-18T03:28:56.521Z,82.13
2022-12-18T03:31:25.866Z,82.88
2022-12-18T03:33:55.415Z,81.81
2022-12-18T03:36:23.860Z,83.81
2022-12-18T03:38:52.611Z,82.95
2022-12-18T03:41:24.564Z,82.98
2022-12-18T03:43:57.752Z,83.24
2022-12-18T03:46:29.839Z,83.36
2022-12-18T03:49:02.552Z,82.27
2022-12-18T03:51:37.516Z,80.18
2022-12-18T03:54:07.153Z,80.43
2022-12-18T03:56:38.733Z,80.13
2022-12-18T03:59:08.065Z,82.59
2022-12-18T04:01:40.014Z,80.79
2022-12-18T04:04:09.120Z,80.38
2022-12-18T04:06:37.667Z,82.46
2022-12-18T04:09:06.205Z,82.60
2022-12-18T04:11:34.097Z,82.25
2022-12-18T04:14:04.756Z,84.21
2022-12-18T04:16:36.221Z,82.54
2022-12-18T04:19:03.870Z,82.04
2022-12-18T04:21:31.759Z,85.52
2022-12-18T04:23:59.392Z,82.15
2022-12-18T04:26:27.134Z,80.89
2022-12-18T04:28:54.728Z,80.82
2022-12-18T04:31:22.387Z,81.79
2022-12-18T04:33:51.441Z,83.82
2022-12-18T04:36:19.379Z,84.06
2022-12-18T04:38:46.943Z,86.70
2022-12-18T04:41:14.917Z,84.87
2022-12-18T04:43:43.022Z,83.17
2022-12-18T04:46:11.059Z,82.08
2022-12-18T04:48:39.503Z,81.82
2022-12-18T04:51:09.122Z,82.95
2022-12-18T04:53:37.233Z,82.64
2022-12-18T04:56:10.729Z,82.49
2022-12-18T04:58:38.591Z,84.19
2022-12-18T05:01:06.519Z,83.76
2022-12-18T05:03:34.212Z,83.83
2022-12-18T05:06:02.622Z,84.39
2022-12-18T05:08:31.663Z,82.75
2022-12-18T05:11:03.000Z,83.85
2022-12-18T05:13:31.276Z,82.12
2022-12-18T05:15:58.910Z,80.76
2022-12-18T05:18:27.067Z,83.08
2022-12-18T05:20:55.371Z,80.64
2022-12-18T05:23:24.612Z,82.44
2022-12-18T05:25:55.266Z,85.27
2022-12-18T05:28:23.200Z,84.59
2022-12-18T05:30:52.366Z,83.95
2022-12-18T05:33:20.376Z,82.61
2022-12-18T05:35:52.475Z,79.58
2022-12-18T05:38:20.292Z,83.11
2022-12-18T05:40:49.395Z,81.29
2022-12-18T05:43:21.461Z,83.55
2022-12-18T05:45:49.861Z,80.40
2022-12-18T05:48:17.975Z,82.72
2022-12-18T05:50:46.977Z,84.47
2022-12-18T05:53:15.293Z,85.49
2022-12-18T05:55:43.431Z,84.85
2022-12-18T05:58:12.504Z,82.15
2022-12-18T06:00:43.026Z,81.61
2022-12-18T06:03:11.665Z,84.38
2022-12-18T06:05:41.476Z,83.11
2022-12-18T06:08:09.744Z,83.86
2022-12-18T06:10:37.348Z,83.35
2022-12-18T06:13:05.239Z,80.30
2022-12-18T06:15:33.091Z,83.71
2022-12-18T06:18:03.718Z,80.22
2022-12-18T06:20:33.620Z,82.13
2022-12-18T06:23:01.862Z,82.80
2022-12-18T06:25:29.471Z,83.25
2022-12-18T06:27:57.109Z,83.86
2022-12-18T06:30:24.742Z,82.86
2022-12-18T06:32:56.658Z,86.04
2022-12-18T06:35:26.129Z,85.28
2022-12-18T06:37:53.733Z,83.39
2022-12-18T06:40:21.352Z,81.65
2022-12-18T06:42:49.026Z,84.06
2022-12-18T06:45:16.911Z,83.62
2022-12-18T06:47:44.586Z,82.66
2022-12-18T06:50:12.277Z,80.76
2022-12-18T06:52:41.439Z,81.44
2022-12-18T06:55:10.686Z,83.22
2022-12-18T06:57:38.883Z,84.84
2022-12-18T07:00:08.644Z,82.92
2022-12-18T07:02:36.584Z,81.88
2022-12-18T07:05:10.449Z,83.03
2022-12-18T07:07:39.231Z,83.34
2022-12-18T07:10:08.710Z,84.42
2022-12-18T07:12:36.686Z,82.89
2022-12-18T07:15:04.776Z,83.04
2022-12-18T07:17:32.354Z,84.00
2022-12-18T07:19:59.917Z,82.91
2022-12-18T07:22:27.849Z,82.97
2022-12-18T07:24:56.255Z,83.70
2022-12-18T07:27:25.254Z,83.68
2022-12-18T07:29:52.926Z,82.70
2022-12-18T07:32:20.563Z,82.64
2022-12-18T07:34:48.130Z,82.70
2022-12-18T07:37:15.929Z,84.46
2022-12-18T07:39:43.484Z,82.62
2022-12-18T07:42:28.775Z,83.21
2022-12-18T07:44:57.710Z,81.53
2022-12-18T07:47:26.294Z,81.38
2022-12-18T07:49:54.813Z,83.09
2022-12-18T07:52:25.961Z,82.05
2022-12-18T07:54:54.076Z,80.32
2022-12-18T07:57:49.112Z,81.35
2022-12-18T08:00:12.370Z,82.07
2022-12-18T08:02:40.279Z,83.44
2022-12-18T08:05:08.294Z,83.81
2022-12-18T08:07:35.874Z,81.88
2022-12-18T08:10:03.759Z,84.72
2022-12-18T08:12:31.712Z,84.63
2022-12-18T08:14:59.268Z,83.04
2022-12-18T08:17:28.170Z,83.67
2022-12-18T08:19:55.894Z,87.39
2022-12-18T08:22:23.500Z,84.35
2022-12-18T08:24:51.103Z,87.34
2022-12-18T08:27:29.380Z,86.56
2022-12-18T08:29:57.463Z,84.28
2022-12-18T08:32:25.195Z,86.92
2022-12-18T08:34:54.246Z,85.11
2022-12-18T08:37:21.863Z,86.06
2022-12-18T08:39:49.455Z,86.31
2022-12-18T08:42:34.754Z,86.07
2022-12-18T08:45:02.403Z,86.28
2022-12-18T08:47:30.036Z,82.99
2022-12-18T08:49:59.029Z,83.69
2022-12-18T08:52:26.580Z,86.39
2022-12-18T08:54:54.125Z,86.19
2022-12-18T08:57:21.695Z,84.39
2022-12-18T08:59:49.274Z,85.34
2022-12-18T09:02:16.977Z,84.22
2022-12-18T09:04:46.814Z,85.45
2022-12-18T09:07:15.988Z,85.12
2022-12-18T09:09:43.998Z,86.59
2022-12-18T09:12:11.579Z,85.46
2022-12-18T09:14:39.164Z,84.38
2022-12-18T09:17:06.816Z,83.86
2022-12-18T09:19:34.491Z,84.57
2022-12-18T09:22:02.230Z,85.21
2022-12-18T09:24:31.182Z,83.96
2022-12-18T09:26:58.852Z,85.27
2022-12-18T09:29:26.644Z,85.01
2022-12-18T09:31:54.259Z,83.93
2022-12-18T09:34:22.693Z,84.34
2022-12-18T09:36:50.384Z,84.11
2022-12-18T09:39:18.094Z,83.84
2022-12-18T09:41:54.476Z,82.90
2022-12-18T09:44:25.910Z,84.08
2022-12-18T09:46:59.378Z,84.72
2022-12-18T09:49:29.883Z,84.97
2022-12-18T09:52:01.929Z,84.41
2022-12-18T09:54:35.548Z,84.43
2022-12-18T09:57:04.710Z,87.17
2022-12-18T09:59:35.797Z,85.92
2022-12-18T10:02:17.998Z,89.09
2022-12-18T10:04:45.855Z,87.96
2022-12-18T10:07:17.682Z,86.40
2022-12-18T10:09:51.012Z,85.37
2022-12-18T10:12:21.733Z,86.30
2022-12-18T10:14:53.695Z,86.50
2022-12-18T10:17:25.818Z,84.44
2022-12-18T10:19:57.274Z,84.59
2022-12-18T10:22:37.770Z,83.06
2022-12-18T10:25:09.269Z,80.38
2022-12-18T10:27:39.209Z,81.74
2022-12-18T10:30:15.508Z,79.00
2022-12-18T10:32:43.604Z,79.28
2022-12-18T10:35:19.321Z,80.57
2022-12-18T10:38:05.731Z,79.02
2022-12-18T10:40:33.913Z,80.46
2022-12-18T10:43:14.120Z,81.24
2022-12-18T10:45:41.712Z,79.57
2022-12-18T10:48:20.244Z,82.44
2022-12-18T10:53:39.184Z,81.07
2022-12-18T10:56:07.705Z,82.87
2022-12-18T10:58:37.862Z,81.77
2022-12-18T11:01:08.460Z,82.29
2022-12-18T11:03:37.827Z,79.55
2022-12-18T11:06:08.665Z,83.22
2022-12-18T11:08:36.742Z,81.20
2022-12-18T11:11:04.835Z,82.72
2022-12-18T11:13:33.239Z,78.35
2022-12-18T11:16:03.341Z,78.00
2022-12-18T11:18:32.762Z,80.23
2022-12-18T11:21:07.587Z,77.03
2022-12-18T11:23:35.776Z,77.71
2022-12-18T11:26:05.093Z,78.36
2022-12-18T11:28:41.967Z,77.87
2022-12-18T11:31:28.487Z,78.62
2022-12-18T11:34:27.945Z,75.13
2022-12-18T11:36:50.880Z,77.49
2022-12-18T11:39:21.172Z,75.59
2022-12-18T11:42:13.212Z,75.55
2022-12-18T11:44:45.358Z,76.83
2022-12-18T11:47:20.868Z,79.53
2022-12-18T11:49:51.525Z,78.03
2022-12-18T11:52:21.019Z,75.50
2022-12-18T11:54:48.591Z,75.87
2022-12-18T11:57:19.739Z,74.50
2022-12-18T11:59:54.854Z,75.25
2022-12-18T12:02:41.048Z,74.58
2022-12-18T12:05:23.287Z,73.03
2022-12-18T12:07:56.233Z,74.95
2022-12-18T12:10:37.768Z,74.87
2022-12-18T12:13:18.965Z,77.97
2022-12-18T12:15:54.106Z,79.43
2022-12-18T12:18:31.124Z,77.13
2022-12-18T12:21:05.073Z,80.98
2022-12-18T12:23:37.476Z,81.28
2022-12-18T12:26:08.697Z,75.38
2022-12-18T12:28:50.274Z,75.85
2022-12-18T12:31:26.096Z,76.48
2022-12-18T12:33:58.916Z,78.32
2022-12-18T12:36:34.624Z,73.90
2022-12-18T12:39:05.355Z,81.27
2022-12-18T12:42:06.572Z,75.14
2022-12-18T12:44:38.005Z,78.77
2022-12-18T12:47:15.746Z,74.82
2022-12-18T12:49:48.448Z,74.89
2022-12-18T12:52:18.535Z,79.53
2022-12-18T12:54:46.816Z,78.16
2022-12-18T12:57:19.717Z,77.25
2022-12-18T12:59:50.986Z,75.35
2022-12-18T13:02:25.588Z,78.57
2022-12-18T13:05:00.725Z,78.22
2022-12-18T13:07:34.635Z,76.87
2022-12-18T13:10:28.683Z,75.95
2022-12-18T13:12:57.046Z,82.44
2022-12-18T13:15:28.400Z,75.80
2022-12-18T13:18:07.003Z,81.57
2022-12-18T13:20:37.309Z,76.49
2022-12-18T13:23:22.170Z,81.06
2022-12-18T13:25:50.112Z,83.84
2022-12-18T13:28:18.407Z,77.51
2022-12-18T13:30:48.887Z,76.75
2022-12-18T13:36:38.446Z,81.02
2022-12-18T13:39:32.760Z,77.83
2022-12-18T13:42:59.632Z,76.32
2022-12-18T13:45:42.891Z,81.66
2022-12-18T13:48:21.174Z,76.78
2022-12-18T13:50:51.856Z,79.50
2022-12-18T13:53:23.813Z,78.93
2022-12-18T13:55:52.883Z,80.46
2022-12-18T13:58:20.862Z,79.61
2022-12-18T14:00:48.842Z,85.21
2022-12-18T14:03:22.707Z,76.78
2022-12-18T14:05:56.358Z,80.43
2022-12-18T14:08:27.014Z,77.40
2022-12-18T14:10:55.245Z,78.11
2022-12-18T14:13:27.017Z,81.18
2022-12-18T14:15:55.521Z,76.67
2022-12-18T14:18:25.659Z,77.88
2022-12-18T14:20:55.214Z,76.19
2022-12-18T14:23:33.125Z,80.29
2022-12-18T14:26:05.718Z,79.84
2022-12-18T14:28:34.065Z,77.76
2022-12-18T14:31:01.757Z,77.36
2022-12-18T14:33:29.804Z,75.80
2022-12-18T14:35:59.828Z,74.91
2022-12-18T14:38:33.553Z,76.91
2022-12-18T14:41:03.105Z,76.93
2022-12-18T14:43:33.088Z,77.32
2022-12-18T14:46:01.120Z,82.36
2022-12-18T14:48:37.417Z,79.26
2022-12-18T14:51:07.439Z,80.79
2022-12-18T14:53:39.473Z,82.51
2022-12-18T14:56:16.813Z,82.07
2022-12-18T14:58:49.339Z,81.59
2022-12-18T15:01:25.214Z,82.62
2022-12-18T15:03:53.899Z,81.74
2022-12-18T15:06:29.067Z,79.54
2022-12-18T15:08:58.215Z,81.95
2022-12-18T15:11:32.583Z,77.29
2022-12-18T15:14:00.579Z,80.71
2022-12-18T15:16:28.604Z,77.03
2022-12-18T15:18:56.263Z,82.26
2022-12-18T15:21:26.963Z,80.00
2022-12-18T15:23:55.227Z,79.02
2022-12-18T15:26:24.755Z,83.71
2022-12-18T15:28:53.755Z,81.05
2022-12-18T15:31:26.838Z,80.78
2022-12-18T15:34:13.300Z,83.38
2022-12-18T15:36:41.197Z,78.64
2022-12-18T15:39:08.772Z,83.52
2022-12-18T15:41:38.159Z,81.61
2022-12-18T15:44:22.672Z,82.03
2022-12-18T15:46:50.377Z,78.14
2022-12-18T15:49:18.016Z,78.87
2022-12-18T15:51:45.701Z,81.45
2022-12-18T15:54:17.587Z,78.05
2022-12-18T15:57:03.921Z,81.57
2022-12-18T15:59:31.545Z,79.90
2022-12-18T16:01:59.238Z,79.03
2022-12-18T16:04:27.461Z,79.50
2022-12-18T16:07:14.568Z,79.60
2022-12-18T16:09:42.869Z,76.21
2022-12-18T16:12:18.008Z,75.87
2022-12-18T16:14:45.818Z,76.97
2022-12-18T16:17:14.580Z,73.62
2022-12-18T16:19:45.360Z,75.88
2022-12-18T16:22:21.823Z,74.88
2022-12-18T16:24:49.909Z,75.24
2022-12-18T16:27:19.138Z,76.53
2022-12-18T16:29:46.814Z,75.81
2022-12-18T16:32:17.513Z,75.92
2022-12-18T16:34:45.584Z,75.17
2022-12-18T16:37:14.913Z,75.46
2022-12-18T16:39:43.125Z,74.68
2022-12-18T16:42:15.354Z,75.15
2022-12-18T16:44:44.911Z,74.29
2022-12-18T16:47:15.181Z,75.10
2022-12-18T16:49:43.225Z,74.06
2022-12-18T16:52:10.769Z,74.87
2022-12-18T16:54:38.428Z,75.69
2022-12-18T16:57:06.258Z,76.34
2022-12-18T16:59:36.816Z,75.17
2022-12-18T17:02:13.396Z,75.54
2022-12-18T17:04:41.083Z,76.63
2022-12-18T17:07:08.639Z,75.45
2022-12-18T17:09:36.444Z,73.93
2022-12-18T17:12:04.776Z,73.64
2022-12-18T17:14:34.139Z,74.52
2022-12-18T17:19:50.926Z,74.50
2022-12-18T17:22:18.580Z,74.59
2022-12-18T17:24:47.293Z,73.70
2022-12-18T17:27:14.917Z,75.24
2022-12-18T17:29:47.223Z,73.57
2022-12-18T17:32:15.587Z,74.55
2022-12-18T17:34:43.154Z,75.02
2022-12-18T17:37:12.068Z,73.71
2022-12-18T17:39:39.999Z,72.34
2022-12-18T17:42:08.562Z,73.25
2022-12-18T17:44:38.313Z,73.45
2022-12-18T17:47:12.200Z,75.69
2022-12-18T17:49:39.853Z,73.38
2022-12-18T17:52:08.024Z,73.94
2022-12-18T17:54:39.481Z,76.33
2022-12-18T17:57:07.064Z,77.10
2022-12-18T17:59:34.668Z,75.45
2022-12-18T18:02:02.455Z,75.34
2022-12-18T18:04:30.611Z,77.27
2022-12-18T18:06:58.137Z,76.15
2022-12-18T18:09:25.798Z,76.82
2022-12-18T18:12:12.434Z,77.60
2022-12-18T18:14:40.267Z,79.08
2022-12-18T18:17:08.154Z,76.94
2022-12-18T18:19:35.757Z,76.47
2022-12-18T18:22:03.700Z,78.59
2022-12-18T18:24:31.505Z,78.37
2022-12-18T18:27:00.897Z,80.12
2022-12-18T18:29:30.327Z,80.26
2022-12-18T18:31:58.362Z,78.71
2022-12-18T18:34:27.710Z,77.25
2022-12-18T18:36:55.431Z,78.50
2022-12-18T18:39:23.012Z,79.67
2022-12-18T18:41:50.725Z,77.55
2022-12-18T18:44:21.520Z,74.42
2022-12-18T18:46:55.211Z,74.23
2022-12-18T18:49:24.105Z,71.21
2022-12-18T18:51:51.986Z,71.35
2022-12-18T18:54:20.823Z,70.78
2022-12-18T18:59:39.056Z,71.91
2022-12-18T19:02:06.833Z,72.61
2022-12-18T19:04:35.092Z,72.92
2022-12-18T19:07:03.181Z,72.26
2022-12-18T19:09:31.297Z,72.09
2022-12-18T19:12:13.025Z,71.78
2022-12-18T19:14:42.063Z,70.34
2022-12-18T19:17:10.383Z,69.26
2022-12-18T19:19:38.064Z,69.63
2022-12-18T19:22:05.932Z,69.36
2022-12-18T19:24:33.519Z,69.61
2022-12-18T19:27:01.069Z,69.50
2022-12-18T19:29:28.728Z,70.37
2022-12-18T19:31:57.648Z,69.91
2022-12-18T19:34:25.303Z,70.05
2022-12-18T19:36:57.939Z,71.80
2022-12-18T19:39:27.105Z,73.07
2022-12-18T19:41:54.652Z,70.57
2022-12-18T19:44:22.238Z,71.22
2022-12-18T19:46:51.696Z,73.29
2022-12-18T19:49:20.675Z,70.83
2022-12-18T19:51:50.423Z,70.86
2022-12-18T19:54:18.406Z,70.53
2022-12-18T19:56:46.561Z,71.19
2022-12-18T19:59:14.587Z,70.65
2022-12-18T20:01:42.421Z,70.03
2022-12-18T20:04:10.156Z,70.57
2022-12-18T20:06:48.366Z,70.28
2022-12-18T20:09:16.675Z,69.11
2022-12-18T20:11:45.806Z,70.78
2022-12-18T20:14:16.851Z,70.49
2022-12-18T20:16:50.649Z,69.00
2022-12-18T20:19:18.553Z,68.96
2022-12-18T20:21:47.824Z,67.16
2022-12-18T20:24:15.789Z,70.37
2022-12-18T20:26:43.440Z,70.87
2022-12-18T20:29:10.998Z,66.96
2022-12-18T20:31:38.656Z,68.89
2022-12-18T20:34:07.163Z,67.93
2022-12-18T20:36:36.423Z,70.77
2022-12-18T20:39:09.866Z,67.86
2022-12-18T20:41:39.348Z,70.29
2022-12-18T20:44:14.032Z,69.40
2022-12-18T20:46:52.946Z,68.76
2022-12-18T20:49:20.968Z,68.70
2022-12-18T20:51:51.227Z,68.62
2022-12-18T20:54:20.408Z,66.94
2022-12-18T20:56:48.086Z,69.69
2022-12-18T20:59:15.662Z,68.96
2022-12-18T21:01:48.163Z,70.65
2022-12-18T21:04:18.355Z,71.93
2022-12-18T21:06:51.304Z,70.14
2022-12-18T21:09:23.014Z,69.96
2022-12-18T21:12:08.222Z,69.08
2022-12-18T21:14:37.960Z,71.12
2022-12-18T21:17:06.339Z,72.32
2022-12-18T21:19:34.034Z,66.86
2022-12-18T21:22:01.699Z,69.44
2022-12-18T21:24:32.685Z,71.35
2022-12-18T21:27:00.729Z,70.70
2022-12-18T21:29:28.774Z,67.55
2022-12-18T21:31:56.610Z,68.20
2022-12-18T21:34:26.459Z,67.32
2022-12-18T21:36:54.721Z,66.14
2022-12-18T21:39:22.679Z,66.85
2022-12-18T21:42:09.740Z,65.91
2022-12-18T21:44:41.668Z,65.12
2022-12-18T21:47:21.330Z,64.98
2022-12-18T21:49:50.986Z,65.26
2022-12-18T21:52:18.534Z,65.20
2022-12-18T21:54:46.130Z,64.59
2022-12-18T21:57:15.439Z,64.67
2022-12-18T21:59:49.927Z,64.78
2022-12-18T22:02:20.106Z,66.53
2022-12-18T22:04:48.214Z,67.85
2022-12-18T22:07:18.549Z,68.18
2022-12-18T22:09:46.140Z,70.25
2022-12-18T22:12:34.975Z,66.93
2022-12-18T22:15:03.620Z,67.61
2022-12-18T22:17:31.167Z,68.65
2022-12-18T22:19:58.752Z,66.77
2022-12-18T22:22:26.315Z,67.29
2022-12-18T22:24:53.925Z,66.07
2022-12-18T22:27:22.844Z,65.52
2022-12-18T22:30:04.769Z,65.28
2022-12-18T22:32:33.123Z,64.37
2022-12-18T22:35:07.245Z,67.29
2022-12-18T22:37:38.293Z,67.18
2022-12-18T22:40:07.468Z,71.63
2022-12-18T22:42:37.469Z,69.67
2022-12-18T22:45:05.647Z,65.78
2022-12-18T22:47:33.228Z,70.37
2022-12-18T22:50:00.845Z,66.09
2022-12-18T22:52:28.454Z,69.11
2022-12-18T22:54:56.046Z,67.36
2022-12-18T22:57:23.858Z,71.99
2022-12-18T22:59:53.016Z,67.71
2022-12-18T23:02:20.908Z,73.91
2022-12-18T23:04:48.589Z,65.21
2022-12-18T23:07:16.498Z,69.74
2022-12-18T23:09:44.201Z,71.30
2022-12-18T23:12:16.175Z,71.71
2022-12-18T23:14:43.802Z,74.44
2022-12-18T23:17:12.717Z,69.49
2022-12-18T23:19:45.482Z,74.16
2022-12-18T23:22:16.288Z,75.29
2022-12-18T23:24:44.124Z,69.96
2022-12-18T23:27:12.270Z,66.73
2022-12-18T23:29:41.072Z,71.99
2022-12-18T23:32:09.169Z,73.79
2022-12-18T23:34:38.108Z,69.15
2022-12-18T23:37:05.683Z,75.08
2022-12-18T23:39:33.249Z,67.82
2022-12-18T23:42:01.462Z,74.07
2022-12-18T23:44:29.304Z,75.45
2022-12-18T23:46:56.934Z,74.82
2022-12-18T23:49:24.676Z,75.25
2022-12-18T23:51:54.677Z,75.14
2022-12-18T23:54:22.720Z,71.98
2022-12-18T23:57:00.924Z,68.04
2022-12-18T23:59:28.485Z,74.97
